createdAt,value
2022-08-16T00:01:33.887Z,99601.16
2022-08-16T00:04:05.238Z,99598.72
2022-08-16T00:06:34.167Z,99597.31
2022-08-16T00:09:07.181Z,99599.09
2022-08-16T00:11:37.167Z,99605.75
2022-08-16T00:14:10.040Z,99606.59
2022-08-16T00:17:06.637Z,99608.13
2022-08-16T00:19:41.822Z,99610.03
2022-08-16T00:22:13.759Z,99611.56
2022-08-16T00:24:46.950Z,99619.28
2022-08-16T00:27:19.215Z,99615.19
2022-08-16T00:29:48.420Z,99611.34
2022-08-16T00:32:32.794Z,99610.75
2022-08-16T00:35:01.925Z,99613.44
2022-08-16T00:37:56.658Z,99619.88
2022-08-16T00:40:33.361Z,99624.22
2022-08-16T00:43:05.334Z,99625.28
2022-08-16T00:45:57.920Z,99622.25
2022-08-16T00:48:31.329Z,99620.84
2022-08-16T00:51:02.070Z,99615.91
2022-08-16T00:53:31.084Z,99626.94
2022-08-16T00:56:05.695Z,99619.31
2022-08-16T00:58:35.786Z,99620.59
2022-08-16T01:01:08.517Z,99621.66
2022-08-16T01:03:41.510Z,99617.31
2022-08-16T01:06:40.424Z,99616.78
2022-08-16T01:09:00.532Z,99620.53
2022-08-16T01:11:30.722Z,99614.50
2022-08-16T01:14:00.754Z,99609.34
2022-08-16T01:16:29.666Z,99613.94
2022-08-16T01:19:02.710Z,99609.00
2022-08-16T01:21:39.849Z,99615.44
2022-08-16T01:24:52.180Z,99613.22
2022-08-16T01:27:12.343Z,99602.66
2022-08-16T01:29:58.113Z,99607.72
2022-08-16T01:32:33.472Z,99612.53
2022-08-16T01:35:07.261Z,99607.59
2022-08-16T01:37:42.343Z,99593.56
2022-08-16T01:40:15.882Z,99595.06
2022-08-16T01:42:47.967Z,99589.47
2022-08-16T01:45:19.603Z,99590.75
2022-08-16T01:47:51.831Z,99577.28
2022-08-16T01:50:42.108Z,99575.06
2022-08-16T01:53:13.807Z,99576.09
2022-08-16T01:56:24.732Z,99577.41
2022-08-16T01:58:57.780Z,99579.50
2022-08-16T02:01:28.656Z,99569.47
2022-08-16T02:04:10.212Z,99569.69
2022-08-16T02:06:46.117Z,99573.69
2022-08-16T02:09:19.978Z,99574.13
2022-08-16T02:11:55.188Z,99569.81
2022-08-16T02:14:26.397Z,99570.03
2022-08-16T02:16:56.799Z,99565.94
2022-08-16T02:19:59.506Z,99559.72
2022-08-16T02:22:33.456Z,99561.03
2022-08-16T02:25:10.112Z,99568.75
2022-08-16T02:27:41.413Z,99556.56
2022-08-16T02:30:36.540Z,99559.84
2022-08-16T02:33:05.605Z,99565.09
2022-08-16T02:35:53.970Z,99571.53
2022-08-16T02:38:27.865Z,99570.94
2022-08-16T02:40:56.597Z,99570.94
2022-08-16T02:43:28.340Z,99571.19
2022-08-16T02:46:00.388Z,99569.78
2022-08-16T02:48:32.197Z,99571.28
2022-08-16T02:51:10.214Z,99570.72
2022-08-16T02:53:44.665Z,99566.41
2022-08-16T02:56:15.558Z,99570.94
2022-08-16T02:58:47.913Z,99576.09
2022-08-16T03:01:36.989Z,99569.63
2022-08-16T03:04:29.102Z,99570.22
2022-08-16T03:07:10.502Z,99572.72
2022-08-16T03:09:44.248Z,99573.50
2022-08-16T03:12:16.538Z,99569.19
2022-08-16T03:14:49.006Z,99562.16
2022-08-16T03:17:21.922Z,99575.03
2022-08-16T03:20:00.018Z,99567.19
2022-08-16T03:22:35.467Z,99570.72
2022-08-16T03:25:11.601Z,99572.34
2022-08-16T03:27:44.484Z,99569.63
2022-08-16T03:30:22.451Z,99574.22
2022-08-16T03:32:54.917Z,99578.31
2022-08-16T03:35:33.280Z,99586.97
2022-08-16T03:38:33.620Z,99588.59
2022-08-16T03:41:25.429Z,99588.13
2022-08-16T03:44:00.832Z,99594.69
2022-08-16T03:46:47.364Z,99589.09
2022-08-16T03:49:23.656Z,99592.38
2022-08-16T03:52:06.056Z,99587.59
2022-08-16T03:54:36.889Z,99584.66
2022-08-16T03:57:06.930Z,99594.97
2022-08-16T03:59:43.573Z,99592.38
2022-08-16T04:02:22.768Z,99591.09
2022-08-16T04:05:10.102Z,99591.47
2022-08-16T04:07:47.372Z,99601.50
2022-08-16T04:10:36.824Z,99600.22
2022-08-16T04:13:20.168Z,99598.69
2022-08-16T04:15:49.725Z,99600.34
2022-08-16T04:18:27.692Z,99609.38
2022-08-16T04:20:59.630Z,99599.78
2022-08-16T04:23:29.461Z,99603.97
2022-08-16T04:26:01.833Z,99600.34
2022-08-16T04:28:53.516Z,99606.44
2022-08-16T04:31:22.085Z,99596.84
2022-08-16T04:33:53.287Z,99606.44
2022-08-16T04:36:24.427Z,99599.75
2022-08-16T04:38:53.981Z,99604.09
2022-08-16T04:41:32.917Z,99606.88
2022-08-16T04:44:32.745Z,99612.38
2022-08-16T04:47:02.815Z,99604.88
2022-08-16T04:49:38.716Z,99616.00
2022-08-16T04:52:34.084Z,99612.03
2022-08-16T04:55:07.512Z,99609.44
2022-08-16T04:57:38.254Z,99617.13
2022-08-16T05:00:31.711Z,99609.03
2022-08-16T05:03:07.300Z,99610.25
2022-08-16T05:05:45.266Z,99614.66
2022-08-16T05:08:28.756Z,99610.63
2022-08-16T05:11:08.302Z,99622.75
2022-08-16T05:13:41.050Z,99618.44
2022-08-16T05:16:21.395Z,99618.34
2022-08-16T05:18:58.343Z,99621.44
2022-08-16T05:21:38.555Z,99615.31
2022-08-16T05:24:10.112Z,99617.13
2022-08-16T05:26:43.186Z,99614.09
2022-08-16T05:29:15.158Z,99619.22
2022-08-16T05:31:57.866Z,99621.63
2022-08-16T05:34:26.513Z,99620.81
2022-08-16T05:36:57.907Z,99611.84
2022-08-16T05:39:37.722Z,99613.88
2022-08-16T05:42:10.302Z,99604.59
2022-08-16T05:44:41.611Z,99610.00
2022-08-16T05:47:15.300Z,99610.56
2022-08-16T05:49:46.049Z,99603.53
2022-08-16T05:52:21.572Z,99608.31
2022-08-16T05:54:58.507Z,99607.41
2022-08-16T05:57:35.474Z,99614.84
2022-08-16T06:00:09.348Z,99612.56
2022-08-16T06:02:41.570Z,99616.31
2022-08-16T06:05:36.276Z,99610.69
2022-08-16T06:08:32.079Z,99613.09
2022-08-16T06:11:10.445Z,99614.66
2022-08-16T06:13:43.512Z,99609.66
2022-08-16T06:16:18.501Z,99616.94
2022-08-16T06:18:50.640Z,99607.94
2022-08-16T06:21:23.616Z,99617.13
2022-08-16T06:23:58.165Z,99615.19
2022-08-16T06:26:34.912Z,99617.13
2022-08-16T06:29:08.142Z,99622.59
2022-08-16T06:31:48.910Z,99614.91
2022-08-16T06:34:40.783Z,99615.25
2022-08-16T06:37:12.189Z,99618.13
2022-08-16T06:39:49.954Z,99619.91
2022-08-16T06:42:50.233Z,99615.41
2022-08-16T06:45:43.484Z,99615.78
2022-08-16T06:48:32.837Z,99616.88
2022-08-16T06:51:05.866Z,99616.41
2022-08-16T06:53:36.825Z,99620.31
2022-08-16T06:56:13.927Z,99612.53
2022-08-16T06:58:56.312Z,99622.34
2022-08-16T07:01:44.516Z,99624.84
2022-08-16T07:04:32.506Z,99617.69
2022-08-16T07:07:09.610Z,99618.34
2022-08-16T07:09:40.589Z,99622.09
2022-08-16T07:12:11.773Z,99619.50
2022-08-16T07:14:47.920Z,99618.59
2022-08-16T07:17:21.664Z,99622.13
2022-08-16T07:20:02.707Z,99616.66
2022-08-16T07:22:53.119Z,99621.94
2022-08-16T07:25:42.789Z,99624.03
2022-08-16T07:28:20.751Z,99622.94
2022-08-16T07:30:54.182Z,99607.19
2022-08-16T07:33:53.376Z,99602.72
2022-08-16T07:36:32.340Z,99601.72
2022-08-16T07:39:01.306Z,99595.69
2022-08-16T07:41:35.914Z,99591.66
2022-08-16T07:44:16.366Z,99589.66
2022-08-16T07:46:46.135Z,99600.19
2022-08-16T07:49:24.131Z,99597.06
2022-08-16T07:51:54.302Z,99597.72
2022-08-16T07:54:32.378Z,99597.72
2022-08-16T07:57:11.580Z,99605.31
2022-08-16T07:59:46.352Z,99592.53
2022-08-16T08:02:20.035Z,99591.06
2022-08-16T08:04:54.021Z,99599.97
2022-08-16T08:07:29.349Z,99600.25
2022-08-16T08:10:04.660Z,99607.03
2022-08-16T08:12:47.596Z,99601.09
2022-08-16T08:15:25.154Z,99600.53
2022-08-16T08:17:54.717Z,99603.50
2022-08-16T08:20:30.594Z,99599.75
2022-08-16T08:23:03.393Z,99595.91
2022-08-16T08:25:55.060Z,99604.63
2022-08-16T08:28:27.139Z,99609.94
2022-08-16T08:31:04.103Z,99612.63
2022-08-16T08:33:37.661Z,99612.94
2022-08-16T08:36:21.784Z,99608.56
2022-08-16T08:38:53.534Z,99617.75
2022-08-16T08:41:29.006Z,99618.97
2022-08-16T08:44:00.339Z,99625.56
2022-08-16T08:46:35.626Z,99613.84
2022-08-16T08:49:07.959Z,99618.66
2022-08-16T08:51:44.623Z,99621.09
2022-08-16T08:54:20.557Z,99623.91
2022-08-16T08:56:53.559Z,99617.78
2022-08-16T08:59:51.625Z,99619.59
2022-08-16T09:02:23.724Z,99618.38
2022-08-16T09:04:57.778Z,99615.41
2022-08-16T09:07:27.684Z,99614.94
2022-08-16T09:10:06.447Z,99616.56
2022-08-16T09:12:38.334Z,99611.06
2022-08-16T09:15:13.575Z,99615.22
2022-08-16T09:17:49.101Z,99619.81
2022-08-16T09:20:23.427Z,99611.94
2022-08-16T09:22:52.964Z,99623.91
2022-08-16T09:25:33.689Z,99619.34
2022-08-16T09:28:09.477Z,99623.13
2022-08-16T09:30:59.480Z,99616.84
2022-08-16T09:33:32.475Z,99607.16
2022-08-16T09:36:12.321Z,99606.97
2022-08-16T09:38:59.902Z,99614.03
2022-08-16T09:41:28.921Z,99611.97
2022-08-16T09:43:59.210Z,99616.88
2022-08-16T09:46:45.045Z,99617.66
2022-08-16T09:49:20.257Z,99627.38
2022-08-16T09:51:55.616Z,99625.38
2022-08-16T09:54:32.315Z,99625.03
2022-08-16T09:57:02.151Z,99629.75
2022-08-16T09:59:38.175Z,99647.06
2022-08-16T10:02:27.434Z,99644.06
2022-08-16T10:04:58.923Z,99650.38
2022-08-16T10:07:38.347Z,99637.97
2022-08-16T10:10:18.930Z,99646.50
2022-08-16T10:13:16.625Z,99654.03
2022-08-16T10:15:55.613Z,99661.69
2022-08-16T10:18:56.308Z,99655.13
2022-08-16T10:21:18.077Z,99653.09
2022-08-16T10:23:48.624Z,99657.06
2022-08-16T10:27:18.489Z,99657.59
2022-08-16T10:29:06.919Z,99661.03
2022-08-16T10:31:44.653Z,99660.47
2022-08-16T10:34:31.172Z,99663.22
2022-08-16T10:37:02.853Z,99661.88
2022-08-16T10:39:41.865Z,99659.63
2022-08-16T10:42:13.221Z,99665.75
2022-08-16T10:44:42.728Z,99676.25
2022-08-16T10:47:22.361Z,99678.69
2022-08-16T10:49:51.261Z,99671.53
2022-08-16T10:52:21.410Z,99669.09
2022-08-16T10:55:40.656Z,99677.28
2022-08-16T10:57:42.544Z,99678.81
2022-08-16T11:00:21.342Z,99677.97
2022-08-16T11:03:37.680Z,99677.69
2022-08-16T11:05:59.464Z,99680.84
2022-08-16T11:08:35.251Z,99688.16
2022-08-16T11:11:15.517Z,99687.38
2022-08-16T11:13:58.644Z,99686.88
2022-08-16T11:19:18.394Z,99692.81
2022-08-16T11:24:44.692Z,99693.66
2022-08-16T11:27:21.227Z,99692.75
2022-08-16T11:29:55.200Z,99691.72
2022-08-16T11:32:31.012Z,99693.06
2022-08-16T11:35:11.063Z,99683.59
2022-08-16T11:40:37.934Z,99687.22
2022-08-16T11:43:07.774Z,99693.16
2022-08-16T11:45:40.577Z,99685.34
2022-08-16T11:48:11.660Z,99691.72
2022-08-16T11:50:40.276Z,99689.47
2022-08-16T11:53:09.413Z,99689.47
2022-08-16T11:55:39.798Z,99693.72
2022-08-16T11:58:14.348Z,99693.94
2022-08-16T12:00:51.277Z,99697.38
2022-08-16T12:03:34.744Z,99691.91
2022-08-16T12:06:11.046Z,99693.53
2022-08-16T12:09:01.807Z,99695.28
2022-08-16T12:11:33.315Z,99689.53
2022-08-16T12:14:04.503Z,99688.69
2022-08-16T12:16:34.130Z,99679.22
2022-08-16T12:19:04.545Z,99676.59
2022-08-16T12:21:36.034Z,99671.69
2022-08-16T12:24:23.922Z,99665.00
2022-08-16T12:26:54.708Z,99667.06
2022-08-16T12:29:25.921Z,99658.16
2022-08-16T12:32:00.913Z,99663.16
2022-08-16T12:34:50.843Z,99647.78
2022-08-16T12:37:24.462Z,99647.47
2022-08-16T12:39:55.156Z,99645.81
2022-08-16T12:42:34.364Z,99640.81
2022-08-16T12:45:05.320Z,99646.25
2022-08-16T12:47:51.494Z,99637.28
2022-08-16T12:50:32.954Z,99628.66
2022-08-16T12:53:03.535Z,99632.13
2022-08-16T12:55:33.534Z,99633.00
2022-08-16T12:58:13.757Z,99618.19
2022-08-16T13:01:01.598Z,99627.03
2022-08-16T13:03:32.725Z,99620.97
2022-08-16T13:06:09.497Z,99625.06
2022-08-16T13:08:41.405Z,99615.97
2022-08-16T13:11:14.593Z,99623.38
2022-08-16T13:13:47.597Z,99624.31
2022-08-16T13:16:27.325Z,99619.78
2022-08-16T13:18:56.204Z,99620.63
2022-08-16T13:21:25.054Z,99628.59
2022-08-16T13:23:55.973Z,99615.91
2022-08-16T13:26:26.182Z,99609.91
2022-08-16T13:28:57.021Z,99611.75
2022-08-16T13:31:26.945Z,99616.91
2022-08-16T13:33:58.917Z,99613.69
2022-08-16T13:39:18.179Z,99604.59
2022-08-16T13:41:53.813Z,99589.56
2022-08-16T13:44:36.047Z,99585.06
2022-08-16T13:47:13.117Z,99593.56
2022-08-16T13:49:43.324Z,99583.13
2022-08-16T13:52:12.536Z,99593.03
2022-08-16T13:54:41.404Z,99585.81
2022-08-16T13:57:11.592Z,99592.25
2022-08-16T13:59:43.432Z,99585.69
2022-08-16T14:02:15.273Z,99580.13
2022-08-16T14:04:46.815Z,99575.31
2022-08-16T14:07:31.985Z,99568.13
2022-08-16T14:10:04.394Z,99581.41
2022-08-16T14:12:33.161Z,99576.75
2022-08-16T14:15:03.787Z,99573.78
2022-08-16T14:18:15.501Z,99581.13
2022-08-16T14:20:21.445Z,99579.50
2022-08-16T14:22:52.520Z,99582.25
2022-08-16T14:25:24.736Z,99577.03
2022-08-16T14:27:55.973Z,99576.59
2022-08-16T14:30:26.947Z,99572.81
2022-08-16T14:32:56.249Z,99576.44
2022-08-16T14:35:36.864Z,99572.56
2022-08-16T14:38:18.145Z,99576.53
2022-08-16T14:40:52.746Z,99568.66
2022-08-16T14:43:25.005Z,99560.66
2022-08-16T14:45:55.805Z,99556.47
2022-08-16T14:48:25.794Z,99565.19
2022-08-16T14:50:56.121Z,99557.09
2022-08-16T14:53:26.431Z,99554.97
2022-08-16T14:55:55.279Z,99552.00
2022-08-16T14:58:34.650Z,99553.09
2022-08-16T15:01:09.842Z,99559.50
2022-08-16T15:03:42.323Z,99559.22
2022-08-16T15:06:14.529Z,99564.69
2022-08-16T15:08:45.239Z,99562.06
2022-08-16T15:11:14.878Z,99563.16
2022-08-16T15:13:43.615Z,99556.88
2022-08-16T15:16:13.931Z,99553.88
2022-08-16T15:18:42.941Z,99559.19
2022-08-16T15:21:15.592Z,99558.81
2022-08-16T15:23:44.467Z,99563.75
2022-08-16T15:26:18.848Z,99567.16
2022-08-16T15:29:02.449Z,99570.97
2022-08-16T15:31:34.308Z,99573.97
2022-08-16T15:34:04.422Z,99570.72
2022-08-16T15:36:33.160Z,99573.88
2022-08-16T15:39:27.969Z,99574.63
2022-08-16T15:42:11.043Z,99574.00
2022-08-16T15:44:50.962Z,99574.78
2022-08-16T15:47:26.307Z,99570.03
2022-08-16T15:49:56.225Z,99570.56
2022-08-16T15:52:29.941Z,99565.44
2022-08-16T15:55:13.403Z,99573.25
2022-08-16T15:57:51.335Z,99580.16
2022-08-16T16:00:21.289Z,99574.16
2022-08-16T16:03:01.471Z,99582.44
2022-08-16T16:05:30.867Z,99588.72
2022-08-16T16:08:11.212Z,99586.16
2022-08-16T16:10:41.673Z,99589.06
2022-08-16T16:13:11.987Z,99584.91
2022-08-16T16:15:44.124Z,99579.06
2022-08-16T16:18:14.894Z,99592.47
2022-08-16T16:20:47.701Z,99602.03
2022-08-16T16:23:18.241Z,99599.63
2022-08-16T16:25:48.803Z,99595.47
2022-08-16T16:29:06.612Z,99610.56
2022-08-16T16:31:13.454Z,99613.00
2022-08-16T16:33:45.488Z,99611.06
2022-08-16T16:36:17.495Z,99618.16
2022-08-16T16:38:47.696Z,99613.94
2022-08-16T16:41:20.638Z,99615.16
2022-08-16T16:43:53.386Z,99616.63
2022-08-16T16:46:43.076Z,99624.47
2022-08-16T16:49:15.722Z,99622.31
2022-08-16T16:51:49.789Z,99626.81
2022-08-16T16:54:28.005Z,99625.91
2022-08-16T16:56:58.268Z,99630.75
2022-08-16T16:59:28.001Z,99632.00
2022-08-16T17:02:38.769Z,99632.84
2022-08-16T17:04:49.673Z,99640.06
2022-08-16T17:07:24.084Z,99639.53
2022-08-16T17:09:53.753Z,99654.78
2022-08-16T17:12:24.936Z,99654.88
2022-08-16T17:15:12.777Z,99656.63
2022-08-16T17:18:00.175Z,99656.19
2022-08-16T17:20:30.950Z,99657.19
2022-08-16T17:22:59.966Z,99655.50
2022-08-16T17:25:36.484Z,99662.41
2022-08-16T17:28:58.055Z,99664.09
2022-08-16T17:30:54.917Z,99664.78
2022-08-16T17:33:24.221Z,99656.44
2022-08-16T17:35:55.650Z,99664.38
2022-08-16T17:39:28.691Z,99654.09
2022-08-16T17:41:17.029Z,99656.06
2022-08-16T17:43:46.309Z,99652.56
2022-08-16T17:46:50.466Z,99652.00
2022-08-16T17:49:05.410Z,99654.19
2022-08-16T17:51:35.566Z,99657.72
2022-08-16T17:54:04.260Z,99659.63
2022-08-16T17:56:33.377Z,99651.50
2022-08-16T17:59:02.771Z,99656.41
2022-08-16T18:01:32.426Z,99659.09
2022-08-16T18:04:07.678Z,99651.50
2022-08-16T18:06:40.348Z,99661.78
2022-08-16T18:09:10.362Z,99656.63
2022-08-16T18:11:41.094Z,99666.06
2022-08-16T18:14:11.995Z,99655.50
2022-08-16T18:16:41.474Z,99648.16
2022-08-16T18:19:11.261Z,99658.69
2022-08-16T18:21:59.726Z,99655.38
2022-08-16T18:24:28.895Z,99659.41
2022-08-16T18:27:21.895Z,99665.34
2022-08-16T18:29:48.201Z,99665.00
2022-08-16T18:32:22.023Z,99667.91
2022-08-16T18:34:54.413Z,99672.22
2022-08-16T18:37:25.357Z,99677.53
2022-08-16T18:39:54.302Z,99680.16
2022-08-16T18:42:25.453Z,99681.72
2022-08-16T18:44:54.123Z,99681.66
2022-08-16T18:47:22.785Z,99674.50
2022-08-16T18:49:51.201Z,99679.09
2022-08-16T18:52:25.083Z,99685.56
2022-08-16T18:55:02.942Z,99685.81
2022-08-16T18:57:43.601Z,99693.94
2022-08-16T19:00:14.546Z,99693.69
2022-08-16T19:02:58.826Z,99689.53
2022-08-16T19:05:30.954Z,99685.72
2022-08-16T19:07:59.606Z,99687.63
2022-08-16T19:10:29.860Z,99692.75
2022-08-16T19:12:58.366Z,99697.09
2022-08-16T19:15:29.105Z,99693.84
2022-08-16T19:17:57.964Z,99702.22
2022-08-16T19:20:28.259Z,99693.78
2022-08-16T19:23:10.134Z,99690.53
2022-08-16T19:25:46.923Z,99692.13
2022-08-16T19:28:33.307Z,99694.25
2022-08-16T19:31:10.896Z,99696.06
2022-08-16T19:33:39.980Z,99698.06
2022-08-16T19:36:11.649Z,99702.34
2022-08-16T19:38:57.990Z,99700.78
2022-08-16T19:41:36.545Z,99698.66
2022-08-16T19:44:06.291Z,99706.53
2022-08-16T19:46:35.144Z,99703.00
2022-08-16T19:49:04.151Z,99710.84
2022-08-16T19:51:32.927Z,99708.22
2022-08-16T19:54:01.760Z,99710.72
2022-08-16T19:56:30.563Z,99708.41
2022-08-16T19:59:19.315Z,99712.09
2022-08-16T20:01:51.189Z,99713.88
2022-08-16T20:04:20.905Z,99711.44
2022-08-16T20:06:49.640Z,99712.72
2022-08-16T20:09:18.647Z,99714.84
2022-08-16T20:11:47.944Z,99717.13
2022-08-16T20:14:25.736Z,99721.38
2022-08-16T20:16:56.339Z,99719.41
2022-08-16T20:19:27.492Z,99720.47
2022-08-16T20:21:57.507Z,99718.56
2022-08-16T20:24:36.001Z,99724.81
2022-08-16T20:27:06.348Z,99727.97
2022-08-16T20:29:37.555Z,99724.94
2022-08-16T20:32:07.687Z,99724.81
2022-08-16T20:34:36.466Z,99730.38
2022-08-16T20:37:06.550Z,99725.22
2022-08-16T20:39:35.429Z,99722.06
2022-08-16T20:42:04.513Z,99718.69
2022-08-16T20:44:33.565Z,99721.59
2022-08-16T20:47:03.966Z,99722.66
2022-08-16T20:49:32.667Z,99718.31
2022-08-16T20:52:01.616Z,99713.97
2022-08-16T20:54:30.825Z,99718.31
2022-08-16T20:56:59.641Z,99719.16
2022-08-16T20:59:28.693Z,99719.16
2022-08-16T21:01:57.703Z,99723.13
2022-08-16T21:04:29.035Z,99714.81
2022-08-16T21:06:59.467Z,99715.03
2022-08-16T21:09:31.514Z,99713.28
2022-08-16T21:12:02.289Z,99719.06
2022-08-16T21:14:34.307Z,99716.84
2022-08-16T21:17:04.592Z,99709.81
2022-08-16T21:19:35.378Z,99711.91
2022-08-16T21:22:13.275Z,99721.06
2022-08-16T21:24:46.268Z,99719.09
2022-08-16T21:27:17.422Z,99724.38
2022-08-16T21:29:47.193Z,99728.13
2022-08-16T21:32:34.836Z,99725.63
2022-08-16T21:35:11.491Z,99722.13
2022-08-16T21:37:40.499Z,99718.59
2022-08-16T21:40:11.218Z,99725.06
2022-08-16T21:42:42.022Z,99725.31
2022-08-16T21:45:14.606Z,99736.56
2022-08-16T21:47:44.149Z,99731.88
2022-08-16T21:50:15.424Z,99735.06
2022-08-16T21:52:43.832Z,99740.91
2022-08-16T21:55:12.699Z,99745.13
2022-08-16T21:57:41.642Z,99737.72
2022-08-16T22:00:13.955Z,99741.94
2022-08-16T22:02:45.614Z,99734.94
2022-08-16T22:05:19.122Z,99729.56
2022-08-16T22:07:47.494Z,99730.59
2022-08-16T22:11:07.442Z,99727.53
2022-08-16T22:13:05.842Z,99723.91
2022-08-16T22:15:34.569Z,99728.47
2022-08-16T22:18:03.344Z,99732.22
2022-08-16T22:20:33.612Z,99733.88
2022-08-16T22:23:05.856Z,99732.34
2022-08-16T22:25:34.216Z,99729.91
2022-08-16T22:28:02.997Z,99733.16
2022-08-16T22:30:31.996Z,99737.25
2022-08-16T22:33:01.819Z,99733.16
2022-08-16T22:35:30.506Z,99735.28
2022-08-16T22:38:50.273Z,99741.72
2022-08-16T22:40:49.675Z,99741.72
2022-08-16T22:43:18.816Z,99741.72
2022-08-16T22:45:48.271Z,99748.94
2022-08-16T22:48:17.728Z,99743.22
2022-08-16T22:50:47.284Z,99746.13
2022-08-16T22:53:18.464Z,99743.66
2022-08-16T22:55:47.260Z,99737.69
2022-08-16T22:58:16.016Z,99743.75
2022-08-16T23:00:45.210Z,99743.41
2022-08-16T23:03:16.505Z,99739.06
2022-08-16T23:05:49.298Z,99734.16
2022-08-16T23:08:33.684Z,99728.19
2022-08-16T23:11:09.284Z,99734.03
2022-08-16T23:13:38.347Z,99734.03
2022-08-16T23:16:28.737Z,99730.75
2022-08-16T23:19:03.441Z,99733.44
2022-08-16T23:21:32.508Z,99738.34
2022-08-16T23:24:03.033Z,99733.94
2022-08-16T23:26:36.376Z,99735.09
2022-08-16T23:29:24.398Z,99744.72
2022-08-16T23:31:59.453Z,99736.97
2022-08-16T23:34:29.515Z,99736.34
2022-08-16T23:36:58.309Z,99730.69
2022-08-16T23:39:28.518Z,99733.97
2022-08-16T23:41:56.993Z,99728.94
2022-08-16T23:44:57.260Z,99731.63
2022-08-16T23:47:14.247Z,99731.03
2022-08-16T23:49:57.594Z,99728.25
2022-08-16T23:52:39.373Z,99723.53
2022-08-16T23:55:21.434Z,99718.00
2022-08-16T23:57:50.917Z,99717.06
